Time;durP1;ratioP1;P1;durP2;ratioP2;P2;SDS_P1;SDS_P2;PMS_P1;PMS_P2;Temp;Humidity;BMP_temperature;BMP_pressure;BME280_temperature;BME280_humidity;BME280_pressure;Samples;Min_cycle;Max_cycle;Signal;HPM_P1;HPM_P2
2022/12/08 00:01:52;;;;;;;0.47;0.47;;;;;;;;;;4573302;28;20055;-63
2022/12/08 00:04:03;;;;;;;0.40;0.40;;;;;;;;;;4573792;28;20031;-63
2022/12/08 00:11:18;;;;;;;4.88;4.38;;;;;;;;;;4573757;28;20031;-64
2022/12/08 00:13:29;;;;;;;5.22;4.72;;;;;;;;;;4573004;28;20032;-63
2022/12/08 00:15:39;;;;;;;5.53;4.60;;;;;;;;;;4573713;28;20051;-64
2022/12/08 00:17:49;;;;;;;5.45;4.65;;;;;;;;;;4573707;28;20032;-63
2022/12/08 00:19:59;;;;;;;5.38;4.88;;;;;;;;;;4554605;28;20052;-63
2022/12/08 00:22:10;;;;;;;5.20;4.50;;;;;;;;;;4573174;28;20040;-63
2022/12/08 00:24:21;;;;;;;5.45;4.95;;;;;;;;;;4573829;28;20099;-63
2022/12/08 00:26:31;;;;;;;5.10;4.60;;;;;;;;;;4573819;28;20488;-63
2022/12/08 00:28:42;;;;;;;5.28;4.75;;;;;;;;;;4573588;28;20085;-63
2022/12/08 00:30:52;;;;;;;5.32;4.72;;;;;;;;;;4573058;28;20036;-63
2022/12/08 00:33:02;;;;;;;5.30;4.80;;;;;;;;;;4573871;28;20040;-63
2022/12/08 00:35:13;;;;;;;5.40;4.82;;;;;;;;;;4573124;28;20055;-64
2022/12/08 00:37:23;;;;;;;5.10;4.60;;;;;;;;;;4555827;28;20511;-64
2022/12/08 00:39:34;;;;;;;5.15;4.65;;;;;;;;;;4573317;28;20106;-63
2022/12/08 00:44:14;;;;;;;5.30;4.80;;;;;;;;;;4573420;28;20059;-62
2022/12/08 00:46:24;;;;;;;5.53;4.78;;;;;;;;;;4573885;27;20127;-63
2022/12/08 00:48:34;;;;;;;4.80;4.40;;;;;;;;;;4576175;28;20028;-64
2022/12/08 00:50:45;;;;;;;4.93;4.28;;;;;;;;;;4576320;28;20044;-63
2022/12/08 00:52:55;;;;;;;0.60;0.60;;;;;;;;;;4556396;28;20037;-63
2022/12/08 00:55:05;;;;;;;0.50;0.40;;;;;;;;;;4575417;28;20360;-64
2022/12/08 00:57:16;;;;;;;4.97;4.47;;;;;;;;;;4577061;28;20496;-63
2022/12/08 00:59:26;;;;;;;5.20;4.70;;;;;;;;;;4576400;28;20051;-63
2022/12/08 01:01:36;;;;;;;5.70;4.90;;;;;;;;;;4577426;28;20490;-65
2022/12/08 01:03:46;;;;;;;5.45;4.88;;;;;;;;;;4577302;28;20024;-63
2022/12/08 01:06:01;;;;;;;0.80;0.75;;;;;;;;;;4576653;28;20094;-63
2022/12/08 01:08:11;;;;;;;0.43;0.43;;;;;;;;;;4576795;28;20147;-63
2022/12/08 01:10:22;;;;;;;0.50;0.50;;;;;;;;;;4576411;28;20024;-64
2022/12/08 01:12:32;;;;;;;4.13;3.65;;;;;;;;;;4576176;28;20032;-63
2022/12/08 01:14:42;;;;;;;5.15;4.65;;;;;;;;;;4576839;28;20043;-63
2022/12/08 01:16:53;;;;;;;5.70;5.10;;;;;;;;;;4576324;28;20338;-63
2022/12/08 01:19:03;;;;;;;5.80;5.03;;;;;;;;;;4576905;28;20032;-63
2022/12/08 01:21:14;;;;;;;5.65;5.00;;;;;;;;;;4574892;28;20959;-64
2022/12/08 01:23:24;;;;;;;5.85;5.15;;;;;;;;;;4577359;28;20314;-64
2022/12/08 01:25:34;;;;;;;5.28;4.78;;;;;;;;;;4575887;28;20034;-64
2022/12/08 01:27:45;;;;;;;6.03;5.10;;;;;;;;;;4576824;28;20555;-64
2022/12/08 01:29:55;;;;;;;5.63;5.00;;;;;;;;;;4576821;28;20114;-64
2022/12/08 01:32:06;;;;;;;5.10;4.60;;;;;;;;;;4576460;28;20040;-64
2022/12/08 01:34:17;;;;;;;0.80;0.80;;;;;;;;;;4558232;28;20072;-64
2022/12/08 01:36:28;;;;;;;0.57;0.57;;;;;;;;;;4576138;28;20214;-63
2022/12/08 01:38:38;;;;;;;4.70;4.10;;;;;;;;;;4576509;28;20157;-64
2022/12/08 01:40:48;;;;;;;5.30;4.72;;;;;;;;;;4576420;28;20869;-63
2022/12/08 01:42:59;;;;;;;0.60;0.60;;;;;;;;;;4576536;28;20434;-64
2022/12/08 01:45:14;;;;;;;0.60;0.60;;;;;;;;;;4576352;28;20043;-64
2022/12/08 01:47:27;;;;;;;0.57;0.57;;;;;;;;;;4576265;28;20036;-63
2022/12/08 01:49:37;;;;;;;0.60;0.60;;;;;;;;;;4548581;28;20131;-64
2022/12/08 01:51:57;;;;;;;0.68;0.60;;;;;;;;;;4575279;28;20086;-64
2022/12/08 01:54:08;;;;;;;0.40;0.40;;;;;;;;;;4575810;28;20050;-64
2022/12/08 01:56:30;;;;;;;0.50;0.50;;;;;;;;;;4557993;28;20047;-64
2022/12/08 01:58:44;;;;;;;0.60;0.60;;;;;;;;;;4574998;27;20078;-63
2022/12/08 02:00:54;;;;;;;0.50;0.50;;;;;;;;;;4574968;28;20040;-64
2022/12/08 02:03:10;;;;;;;0.55;0.50;;;;;;;;;;4575562;28;20417;-64
2022/12/08 02:05:23;;;;;;;0.50;0.50;;;;;;;;;;4575099;28;20036;-64
2022/12/08 02:07:34;;;;;;;0.40;0.40;;;;;;;;;;4576249;28;20138;-64
2022/12/08 02:09:45;;;;;;;0.50;0.47;;;;;;;;;;4575420;28;20103;-64
2022/12/08 02:11:55;;;;;;;0.50;0.50;;;;;;;;;;4574528;28;20063;-64
2022/12/08 02:14:07;;;;;;;0.40;0.40;;;;;;;;;;4555760;28;20036;-64
2022/12/08 02:16:35;;;;;;;0.50;0.50;;;;;;;;;;4574354;28;20067;-64
2022/12/08 02:18:46;;;;;;;0.40;0.40;;;;;;;;;;4575294;28;21036;-64
2022/12/08 02:21:05;;;;;;;0.50;0.50;;;;;;;;;;4575004;28;20032;-64
2022/12/08 02:23:34;;;;;;;0.60;0.52;;;;;;;;;;4574921;28;20039;-65
2022/12/08 02:26:05;;;;;;;0.50;0.50;;;;;;;;;;4574661;28;20036;-64
2022/12/08 02:28:24;;;;;;;0.50;0.50;;;;;;;;;;4556122;28;20040;-64
2022/12/08 02:30:57;;;;;;;0.50;0.50;;;;;;;;;;4574941;28;20117;-64
2022/12/08 02:33:26;;;;;;;0.45;0.45;;;;;;;;;;4575110;28;20044;-64
2022/12/08 02:35:36;;;;;;;0.60;0.60;;;;;;;;;;4574952;28;20035;-64
2022/12/08 02:37:58;;;;;;;0.50;0.50;;;;;;;;;;4573755;28;20593;-63
2022/12/08 02:40:15;;;;;;;0.57;0.57;;;;;;;;;;4554940;28;20037;-64
2022/12/08 02:42:38;;;;;;;0.50;0.50;;;;;;;;;;4554404;28;20816;-64
2022/12/08 02:44:55;;;;;;;0.63;0.60;;;;;;;;;;4574976;28;20039;-63
2022/12/08 02:47:13;;;;;;;0.50;0.50;;;;;;;;;;4574853;28;20044;-64
2022/12/08 02:49:33;;;;;;;0.40;0.40;;;;;;;;;;4575116;28;20555;-64
2022/12/08 02:51:43;;;;;;;0.50;0.50;;;;;;;;;;4574744;28;20032;-64
2022/12/08 02:53:54;;;;;;;0.47;0.47;;;;;;;;;;4574555;28;20801;-64
2022/12/08 02:56:13;;;;;;;0.50;0.50;;;;;;;;;;4574288;28;20047;-64
2022/12/08 02:58:24;;;;;;;0.45;0.45;;;;;;;;;;4552802;28;20072;-64
2022/12/08 03:00:45;;;;;;;0.55;0.55;;;;;;;;;;4574977;28;20064;-64
2022/12/08 03:03:07;;;;;;;0.47;0.45;;;;;;;;;;4575019;28;20043;-64
2022/12/08 03:05:17;;;;;;;0.50;0.50;;;;;;;;;;4574134;28;20032;-64
2022/12/08 03:07:39;;;;;;;0.50;0.50;;;;;;;;;;4554587;28;20634;-64
2022/12/08 03:09:49;;;;;;;0.50;0.50;;;;;;;;;;4573944;27;20036;-64
2022/12/08 03:12:05;;;;;;;0.47;0.47;;;;;;;;;;4574709;28;20040;-63
2022/12/08 03:14:16;;;;;;;0.50;0.50;;;;;;;;;;4574746;28;20131;-63
2022/12/08 03:16:28;;;;;;;0.60;0.60;;;;;;;;;;4574705;28;20090;-64
2022/12/08 03:18:41;;;;;;;0.47;0.47;;;;;;;;;;4574531;28;20044;-63
2022/12/08 03:20:51;;;;;;;0.70;0.70;;;;;;;;;;4573037;28;20040;-64
2022/12/08 03:23:04;;;;;;;0.60;0.60;;;;;;;;;;4573756;28;20040;-63
2022/12/08 03:25:15;;;;;;;0.50;0.50;;;;;;;;;;4574272;28;20036;-64
2022/12/08 03:27:28;;;;;;;0.50;0.50;;;;;;;;;;4573992;28;20039;-63
2022/12/08 03:29:38;;;;;;;0.52;0.52;;;;;;;;;;4554469;28;20055;-64
2022/12/08 03:31:50;;;;;;;0.60;0.60;;;;;;;;;;4555186;28;20140;-64
2022/12/08 03:34:01;;;;;;;0.50;0.50;;;;;;;;;;4573874;28;20660;-63
2022/12/08 03:36:12;;;;;;;0.40;0.40;;;;;;;;;;4574305;28;20032;-64
2022/12/08 03:38:23;;;;;;;0.50;0.50;;;;;;;;;;4574463;28;20098;-64
2022/12/08 03:40:33;;;;;;;0.45;0.45;;;;;;;;;;4574054;28;20040;-63
2022/12/08 03:42:43;;;;;;;0.43;0.43;;;;;;;;;;4573124;28;20067;-64
2022/12/08 03:44:54;;;;;;;0.50;0.50;;;;;;;;;;4574140;28;20024;-64
2022/12/08 03:47:04;;;;;;;0.50;0.50;;;;;;;;;;4570067;28;20048;-63
2022/12/08 03:49:14;;;;;;;0.60;0.60;;;;;;;;;;4555050;28;20047;-64
2022/12/08 03:51:26;;;;;;;0.50;0.50;;;;;;;;;;4551698;28;20501;-64
2022/12/08 03:53:36;;;;;;;0.50;0.50;;;;;;;;;;4573903;28;20036;-64
2022/12/08 03:55:47;;;;;;;0.50;0.50;;;;;;;;;;4573583;28;20411;-64
2022/12/08 03:57:57;;;;;;;0.50;0.50;;;;;;;;;;4574452;28;20025;-64
2022/12/08 04:00:08;;;;;;;0.60;0.60;;;;;;;;;;4573886;28;20047;-64
2022/12/08 04:02:19;;;;;;;0.70;0.70;;;;;;;;;;4573389;28;20046;-64
2022/12/08 04:04:29;;;;;;;0.50;0.50;;;;;;;;;;4573904;28;20034;-64
2022/12/08 04:06:39;;;;;;;0.60;0.60;;;;;;;;;;4573864;28;20388;-64
2022/12/08 04:08:49;;;;;;;0.40;0.40;;;;;;;;;;4574127;28;20017;-64
2022/12/08 04:11:00;;;;;;;0.57;0.57;;;;;;;;;;4573270;28;20544;-64
2022/12/08 04:13:10;;;;;;;0.45;0.45;;;;;;;;;;4573266;28;20423;-64
2022/12/08 04:15:20;;;;;;;0.50;0.50;;;;;;;;;;4573089;28;20043;-64
2022/12/08 04:17:31;;;;;;;0.50;0.50;;;;;;;;;;4573804;28;20043;-63
2022/12/08 04:19:41;;;;;;;0.60;0.60;;;;;;;;;;4573925;28;20027;-64
2022/12/08 04:21:51;;;;;;;0.40;0.40;;;;;;;;;;4575626;28;20059;-64
2022/12/08 04:24:02;;;;;;;0.55;0.55;;;;;;;;;;4577136;28;20107;-64
2022/12/08 04:26:12;;;;;;;0.50;0.50;;;;;;;;;;4576601;28;20024;-64
2022/12/08 04:28:22;;;;;;;0.40;0.40;;;;;;;;;;4576667;28;20550;-64
2022/12/08 04:30:33;;;;;;;0.60;0.60;;;;;;;;;;4576935;28;20463;-64
2022/12/08 04:32:43;;;;;;;0.50;0.50;;;;;;;;;;4576894;28;20372;-64
2022/12/08 04:34:53;;;;;;;0.50;0.50;;;;;;;;;;4577076;28;20078;-64
2022/12/08 04:37:04;;;;;;;0.65;0.60;;;;;;;;;;4576926;28;20059;-64
2022/12/08 04:39:14;;;;;;;0.50;0.50;;;;;;;;;;4576261;28;20028;-64
2022/12/08 04:41:24;;;;;;;0.47;0.47;;;;;;;;;;4576365;28;20472;-65
2022/12/08 04:43:35;;;;;;;0.40;0.40;;;;;;;;;;4576791;28;20162;-64
2022/12/08 04:45:45;;;;;;;0.40;0.40;;;;;;;;;;4575880;28;20425;-64
2022/12/08 04:47:56;;;;;;;0.40;0.40;;;;;;;;;;4576334;28;20384;-64
2022/12/08 04:50:07;;;;;;;0.50;0.50;;;;;;;;;;4557882;28;20032;-64
2022/12/08 04:52:17;;;;;;;0.50;0.50;;;;;;;;;;4557782;28;20040;-63
2022/12/08 04:54:28;;;;;;;0.50;0.50;;;;;;;;;;4576406;28;20058;-64
2022/12/08 04:56:38;;;;;;;0.40;0.40;;;;;;;;;;4576482;28;20761;-64
2022/12/08 04:58:48;;;;;;;0.55;0.55;;;;;;;;;;4576027;28;20039;-63
2022/12/08 05:00:59;;;;;;;0.60;0.60;;;;;;;;;;4576759;28;20581;-64
2022/12/08 05:03:09;;;;;;;0.43;0.43;;;;;;;;;;4575376;28;20048;-63
2022/12/08 05:05:20;;;;;;;0.50;0.50;;;;;;;;;;4576641;28;20036;-63
2022/12/08 05:07:30;;;;;;;0.43;0.40;;;;;;;;;;4575838;28;20412;-63
2022/12/08 05:09:40;;;;;;;0.50;0.50;;;;;;;;;;4556567;28;20138;-63
2022/12/08 05:11:50;;;;;;;0.50;0.50;;;;;;;;;;4575480;28;20868;-64
2022/12/08 05:14:01;;;;;;;0.70;0.70;;;;;;;;;;4576122;28;20587;-63
2022/12/08 05:16:12;;;;;;;0.50;0.50;;;;;;;;;;4575921;28;20471;-63
2022/12/08 05:18:22;;;;;;;0.50;0.50;;;;;;;;;;4576211;28;20322;-63
2022/12/08 05:20:33;;;;;;;0.52;0.52;;;;;;;;;;4558244;28;20092;-63
2022/12/08 05:22:43;;;;;;;0.45;0.45;;;;;;;;;;4575553;28;20531;-64
2022/12/08 05:24:53;;;;;;;0.50;0.50;;;;;;;;;;4576424;28;20411;-63
2022/12/08 05:27:04;;;;;;;0.43;0.43;;;;;;;;;;4576287;28;20040;-63
2022/12/08 05:29:14;;;;;;;0.50;0.50;;;;;;;;;;4576561;28;20047;-63
2022/12/08 05:31:24;;;;;;;0.50;0.50;;;;;;;;;;4557559;28;20071;-63
2022/12/08 05:33:35;;;;;;;0.50;0.50;;;;;;;;;;4575351;27;20345;-63
2022/12/08 05:35:45;;;;;;;0.43;0.43;;;;;;;;;;4575980;28;20032;-63
2022/12/08 05:37:55;;;;;;;0.40;0.40;;;;;;;;;;4576678;28;20031;-63
2022/12/08 05:40:06;;;;;;;0.60;0.60;;;;;;;;;;4557842;28;20649;-63
2022/12/08 05:42:16;;;;;;;0.50;0.50;;;;;;;;;;4575882;28;20051;-63
2022/12/08 05:44:27;;;;;;;0.50;0.50;;;;;;;;;;4576369;28;20518;-63
2022/12/08 05:46:37;;;;;;;0.50;0.50;;;;;;;;;;4556340;28;20074;-63
2022/12/08 05:48:47;;;;;;;0.50;0.50;;;;;;;;;;4575123;28;20147;-63
2022/12/08 05:50:58;;;;;;;0.52;0.52;;;;;;;;;;4575715;28;20036;-62
2022/12/08 05:53:08;;;;;;;0.55;0.55;;;;;;;;;;4575144;28;20075;-62
2022/12/08 05:55:18;;;;;;;0.40;0.40;;;;;;;;;;4575508;28;20077;-62
2022/12/08 05:57:29;;;;;;;0.50;0.50;;;;;;;;;;4575732;28;20040;-63
2022/12/08 05:59:39;;;;;;;0.45;0.45;;;;;;;;;;4575616;28;20389;-63
2022/12/08 06:01:49;;;;;;;0.65;0.65;;;;;;;;;;4574692;28;20036;-63
2022/12/08 06:04:00;;;;;;;0.40;0.40;;;;;;;;;;4575409;28;20032;-63
2022/12/08 06:06:11;;;;;;;0.73;0.60;;;;;;;;;;4575717;28;21018;-63
2022/12/08 06:08:21;;;;;;;0.50;0.50;;;;;;;;;;4574831;28;20036;-63
2022/12/08 06:10:31;;;;;;;0.60;0.50;;;;;;;;;;4575093;28;20028;-63
2022/12/08 06:12:42;;;;;;;0.50;0.50;;;;;;;;;;4575600;28;20036;-63
2022/12/08 06:14:52;;;;;;;0.50;0.50;;;;;;;;;;4574357;28;20040;-63
2022/12/08 06:17:02;;;;;;;0.52;0.50;;;;;;;;;;4574785;28;20488;-63
2022/12/08 06:19:12;;;;;;;0.50;0.50;;;;;;;;;;4575085;28;20032;-63
2022/12/08 06:21:23;;;;;;;0.40;0.40;;;;;;;;;;4574997;28;20034;-63
2022/12/08 06:23:33;;;;;;;0.60;0.60;;;;;;;;;;4554991;28;20514;-62
2022/12/08 06:25:44;;;;;;;0.50;0.50;;;;;;;;;;4575128;28;20114;-63
2022/12/08 06:27:54;;;;;;;0.40;0.40;;;;;;;;;;4575585;28;20036;-63
2022/12/08 06:30:05;;;;;;;0.55;0.55;;;;;;;;;;4555792;28;20391;-63
2022/12/08 06:32:15;;;;;;;0.60;0.60;;;;;;;;;;4573753;28;20079;-63
2022/12/08 06:34:25;;;;;;;0.50;0.50;;;;;;;;;;4573877;28;20039;-62
2022/12/08 06:36:36;;;;;;;0.45;0.45;;;;;;;;;;4574226;28;20570;-63
2022/12/08 06:38:46;;;;;;;0.50;0.50;;;;;;;;;;4574676;28;20379;-62
2022/12/08 06:40:57;;;;;;;0.50;0.50;;;;;;;;;;4573983;28;20032;-63
2022/12/08 06:43:07;;;;;;;0.63;0.63;;;;;;;;;;4574317;27;20063;-63
2022/12/08 06:45:17;;;;;;;0.50;0.50;;;;;;;;;;4573439;28;20504;-63
2022/12/08 06:47:28;;;;;;;0.55;0.55;;;;;;;;;;4553157;28;20052;-63
2022/12/08 06:49:38;;;;;;;0.47;0.47;;;;;;;;;;4574432;28;20032;-63
2022/12/08 06:51:49;;;;;;;0.50;0.50;;;;;;;;;;4545046;28;20044;-63
2022/12/08 06:54:00;;;;;;;0.50;0.50;;;;;;;;;;4574346;28;20098;-63
2022/12/08 06:56:10;;;;;;;0.50;0.50;;;;;;;;;;4572640;28;20615;-63
2022/12/08 06:58:20;;;;;;;0.57;0.57;;;;;;;;;;4574582;28;20032;-63
2022/12/08 07:00:31;;;;;;;0.50;0.50;;;;;;;;;;4574608;28;20540;-62
2022/12/08 07:02:41;;;;;;;0.40;0.40;;;;;;;;;;4574293;28;20102;-62
2022/12/08 07:04:51;;;;;;;0.40;0.40;;;;;;;;;;4574092;28;20484;-62
2022/12/08 07:07:02;;;;;;;0.50;0.50;;;;;;;;;;4575042;28;20028;-63
2022/12/08 07:09:12;;;;;;;0.50;0.50;;;;;;;;;;4574692;28;20083;-63
2022/12/08 07:11:22;;;;;;;0.50;0.50;;;;;;;;;;4556118;28;20489;-62
2022/12/08 07:13:32;;;;;;;0.50;0.50;;;;;;;;;;4574209;28;20032;-62
2022/12/08 07:15:43;;;;;;;0.50;0.50;;;;;;;;;;4573848;28;20040;-62
2022/12/08 07:17:53;;;;;;;0.40;0.40;;;;;;;;;;4574207;28;20024;-63
2022/12/08 07:20:04;;;;;;;0.50;0.50;;;;;;;;;;4555482;28;20112;-63
2022/12/08 07:22:14;;;;;;;0.50;0.50;;;;;;;;;;4573562;28;20040;-62
2022/12/08 07:24:25;;;;;;;0.50;0.50;;;;;;;;;;4573833;28;20028;-63
2022/12/08 07:26:35;;;;;;;0.40;0.40;;;;;;;;;;4573820;28;20491;-62
2022/12/08 07:28:46;;;;;;;0.40;0.40;;;;;;;;;;4574014;28;20574;-62
2022/12/08 07:30:56;;;;;;;0.38;0.38;;;;;;;;;;4573890;28;20032;-62
2022/12/08 07:33:06;;;;;;;0.50;0.50;;;;;;;;;;4573855;28;20040;-62
2022/12/08 07:35:17;;;;;;;0.52;0.52;;;;;;;;;;4573652;28;20094;-62
2022/12/08 07:37:27;;;;;;;0.50;0.50;;;;;;;;;;4573951;28;20219;-62
2022/12/08 07:39:37;;;;;;;0.47;0.47;;;;;;;;;;4573423;28;20169;-62
2022/12/08 07:41:47;;;;;;;0.43;0.43;;;;;;;;;;4572936;28;20032;-62
2022/12/08 07:43:58;;;;;;;0.50;0.50;;;;;;;;;;4573660;28;20536;-62
2022/12/08 07:46:12;;;;;;;0.60;0.60;;;;;;;;;;4572938;28;20492;-62
2022/12/08 07:48:23;;;;;;;0.50;0.50;;;;;;;;;;4573649;28;20032;-62
2022/12/08 07:50:33;;;;;;;0.50;0.50;;;;;;;;;;4573795;28;20044;-62
2022/12/08 07:52:43;;;;;;;0.50;0.50;;;;;;;;;;4573756;28;20043;-62
2022/12/08 07:54:53;;;;;;;0.40;0.40;;;;;;;;;;4573853;28;20036;-62
2022/12/08 07:57:04;;;;;;;0.50;0.50;;;;;;;;;;4558342;28;20513;-62
2022/12/08 07:59:15;;;;;;;0.50;0.50;;;;;;;;;;4576967;28;20040;-62
2022/12/08 08:01:27;;;;;;;0.32;0.32;;;;;;;;;;4576305;28;20579;-62
2022/12/08 08:03:38;;;;;;;2.25;2.05;;;;;;;;;;4576418;28;20044;-62
2022/12/08 08:05:48;;;;;;;2.65;2.10;;;;;;;;;;4576936;28;20028;-62
2022/12/08 08:07:59;;;;;;;2.13;1.92;;;;;;;;;;4576143;28;20575;-62
2022/12/08 08:10:10;;;;;;;2.08;1.88;;;;;;;;;;4575716;28;20032;-62
2022/12/08 08:12:20;;;;;;;2.20;2.00;;;;;;;;;;4575938;28;20054;-62
2022/12/08 08:14:30;;;;;;;2.47;2.28;;;;;;;;;;4575160;28;20098;-63
2022/12/08 08:16:45;;;;;;;2.35;2.15;;;;;;;;;;4575528;28;20106;-62
2022/12/08 08:18:55;;;;;;;2.92;2.63;;;;;;;;;;4574875;28;20043;-62
2022/12/08 08:21:06;;;;;;;2.38;2.17;;;;;;;;;;4575932;28;20546;-62
2022/12/08 08:23:16;;;;;;;2.30;2.10;;;;;;;;;;4575128;28;20116;-62
2022/12/08 08:25:27;;;;;;;2.60;2.30;;;;;;;;;;4556166;28;20727;-62
2022/12/08 08:27:37;;;;;;;2.40;2.20;;;;;;;;;;4576224;28;20507;-62
2022/12/08 08:29:47;;;;;;;2.83;2.40;;;;;;;;;;4574930;28;20032;-62
2022/12/08 08:31:58;;;;;;;2.38;2.17;;;;;;;;;;4576158;28;20127;-62
2022/12/08 08:34:08;;;;;;;2.20;2.00;;;;;;;;;;4575447;28;20077;-62
2022/12/08 08:36:20;;;;;;;2.63;2.42;;;;;;;;;;4575983;28;20090;-62
2022/12/08 08:38:31;;;;;;;2.60;2.40;;;;;;;;;;4575529;28;20036;-62
2022/12/08 08:40:41;;;;;;;2.90;2.30;;;;;;;;;;4575362;28;20040;-62
2022/12/08 08:42:51;;;;;;;2.30;2.10;;;;;;;;;;4574410;28;20039;-62
2022/12/08 08:45:02;;;;;;;2.40;2.20;;;;;;;;;;4575040;28;20036;-62
2022/12/08 08:47:12;;;;;;;2.20;2.00;;;;;;;;;;4574097;28;20028;-62
2022/12/08 08:49:22;;;;;;;2.92;2.53;;;;;;;;;;4575190;28;20389;-62
2022/12/08 08:51:33;;;;;;;2.30;2.10;;;;;;;;;;4575077;28;20091;-62
2022/12/08 08:53:43;;;;;;;2.42;2.22;;;;;;;;;;4575228;28;20086;-62
2022/12/08 08:55:54;;;;;;;2.42;2.22;;;;;;;;;;4575316;28;20038;-62
2022/12/08 08:58:04;;;;;;;2.47;2.15;;;;;;;;;;4575746;28;20032;-62
2022/12/08 09:00:14;;;;;;;2.30;2.10;;;;;;;;;;4557893;28;20084;-62
2022/12/08 09:02:25;;;;;;;2.20;2.00;;;;;;;;;;4575493;28;20059;-62
2022/12/08 09:04:35;;;;;;;2.38;2.17;;;;;;;;;;4574763;28;20047;-62
2022/12/08 09:06:46;;;;;;;2.30;2.10;;;;;;;;;;4555037;28;20477;-62
2022/12/08 09:08:57;;;;;;;2.38;2.17;;;;;;;;;;4574942;28;20032;-62
2022/12/08 09:11:07;;;;;;;2.65;2.45;;;;;;;;;;4575165;28;20036;-62
2022/12/08 09:13:18;;;;;;;2.30;2.10;;;;;;;;;;4576007;28;20429;-62
2022/12/08 09:15:28;;;;;;;2.70;2.50;;;;;;;;;;4576099;28;20499;-62
2022/12/08 09:17:38;;;;;;;2.75;2.47;;;;;;;;;;4575348;28;20103;-62
2022/12/08 09:19:49;;;;;;;2.75;2.55;;;;;;;;;;4576541;28;20579;-62
2022/12/08 09:21:59;;;;;;;3.22;2.92;;;;;;;;;;4575370;28;20044;-62
2022/12/08 09:24:14;;;;;;;2.88;2.63;;;;;;;;;;4575007;28;20433;-62
2022/12/08 09:26:26;;;;;;;2.58;2.38;;;;;;;;;;4575421;28;20563;-63
2022/12/08 09:28:36;;;;;;;3.10;2.80;;;;;;;;;;4575764;28;20638;-62
2022/12/08 09:30:46;;;;;;;2.95;2.65;;;;;;;;;;4575017;28;20122;-62
2022/12/08 09:32:57;;;;;;;3.15;2.85;;;;;;;;;;4574767;28;20693;-61
2022/12/08 09:35:07;;;;;;;3.25;2.95;;;;;;;;;;4574917;28;20024;-62
2022/12/08 09:37:17;;;;;;;2.83;2.53;;;;;;;;;;4575745;28;20036;-63
2022/12/08 09:39:28;;;;;;;2.65;2.45;;;;;;;;;;4575616;28;20496;-62
2022/12/08 09:41:41;;;;;;;3.08;2.78;;;;;;;;;;4575158;28;20058;-62
2022/12/08 09:44:00;;;;;;;3.03;2.70;;;;;;;;;;4575626;28;20039;-62
2022/12/08 09:46:12;;;;;;;2.60;2.40;;;;;;;;;;4575747;28;20036;-62
2022/12/08 09:48:28;;;;;;;2.40;2.20;;;;;;;;;;4556201;28;20143;-62
2022/12/08 09:50:47;;;;;;;1.90;1.73;;;;;;;;;;4575430;28;20040;-62
2022/12/08 09:52:57;;;;;;;2.67;2.10;;;;;;;;;;4574700;28;20630;-62
2022/12/08 09:55:14;;;;;;;2.30;2.10;;;;;;;;;;4574990;28;20294;-62
2022/12/08 09:57:24;;;;;;;2.40;2.20;;;;;;;;;;4574623;28;20122;-62
2022/12/08 09:59:35;;;;;;;2.40;2.20;;;;;;;;;;4575393;28;20039;-62
2022/12/08 10:01:45;;;;;;;2.50;2.30;;;;;;;;;;4574193;28;20040;-62
2022/12/08 10:03:55;;;;;;;2.42;2.22;;;;;;;;;;4574603;28;20043;-62
2022/12/08 10:06:08;;;;;;;2.40;2.20;;;;;;;;;;4574179;28;20139;-62
2022/12/08 10:08:24;;;;;;;2.42;2.22;;;;;;;;;;4574560;28;20039;-62
2022/12/08 10:10:40;;;;;;;2.47;2.28;;;;;;;;;;4575164;28;20121;-62
2022/12/08 10:12:50;;;;;;;2.30;2.10;;;;;;;;;;4573602;28;20127;-62
2022/12/08 10:15:16;;;;;;;2.13;1.92;;;;;;;;;;4554749;28;20033;-62
2022/12/08 10:17:30;;;;;;;2.40;2.20;;;;;;;;;;4574786;28;20551;-62
2022/12/08 10:19:42;;;;;;;2.40;2.20;;;;;;;;;;4555594;28;20075;-62
2022/12/08 10:21:53;;;;;;;2.50;2.30;;;;;;;;;;4574262;28;20460;-62
2022/12/08 10:24:08;;;;;;;2.60;2.40;;;;;;;;;;4574749;28;20068;-62
2022/12/08 10:26:20;;;;;;;2.50;2.30;;;;;;;;;;4574731;28;20044;-62
2022/12/08 10:28:32;;;;;;;2.25;2.05;;;;;;;;;;4574787;28;20332;-62
2022/12/08 10:30:42;;;;;;;2.40;2.20;;;;;;;;;;4574615;28;20078;-62
2022/12/08 10:32:53;;;;;;;2.70;2.50;;;;;;;;;;4554897;28;20552;-62
2022/12/08 10:35:07;;;;;;;3.17;2.88;;;;;;;;;;4574260;28;20098;-62
2022/12/08 10:37:17;;;;;;;2.38;2.17;;;;;;;;;;4574412;28;20040;-62
2022/12/08 10:39:28;;;;;;;2.47;2.22;;;;;;;;;;4555277;28;20028;-61
2022/12/08 10:41:39;;;;;;;2.50;2.30;;;;;;;;;;4574763;28;20613;-62
2022/12/08 10:43:53;;;;;;;2.95;2.65;;;;;;;;;;4574652;28;20110;-63
2022/12/08 10:46:26;;;;;;;2.10;1.90;;;;;;;;;;4571620;28;20059;-62
2022/12/08 10:48:45;;;;;;;2.33;2.13;;;;;;;;;;4574561;28;20559;-62
2022/12/08 10:50:56;;;;;;;3.00;2.70;;;;;;;;;;4544334;28;20044;-62
2022/12/08 10:53:06;;;;;;;2.00;1.80;;;;;;;;;;4573792;28;20086;-62
2022/12/08 10:55:18;;;;;;;2.05;1.85;;;;;;;;;;4573158;28;20040;-62
2022/12/08 10:57:28;;;;;;;2.10;1.90;;;;;;;;;;4574412;28;20032;-64
2022/12/08 10:59:41;;;;;;;1.80;1.70;;;;;;;;;;4573538;28;20484;-62
2022/12/08 11:01:52;;;;;;;2.10;1.90;;;;;;;;;;4573930;28;20124;-62
2022/12/08 11:04:04;;;;;;;1.60;1.50;;;;;;;;;;4573759;28;20578;-62
2022/12/08 11:06:20;;;;;;;1.70;1.60;;;;;;;;;;4573550;28;20036;-62
2022/12/08 11:08:30;;;;;;;1.70;1.58;;;;;;;;;;4574884;28;20504;-62
2022/12/08 11:10:44;;;;;;;1.60;1.50;;;;;;;;;;4574223;28;20032;-62
2022/12/08 11:12:56;;;;;;;1.80;1.70;;;;;;;;;;4562572;28;20044;-62
2022/12/08 11:15:13;;;;;;;1.48;1.38;;;;;;;;;;4574111;28;20064;-62
2022/12/08 11:17:28;;;;;;;1.38;1.27;;;;;;;;;;4574092;28;20149;-62
2022/12/08 11:19:39;;;;;;;1.38;1.27;;;;;;;;;;4573423;28;20039;-62
2022/12/08 11:21:50;;;;;;;1.30;1.20;;;;;;;;;;4573056;28;20121;-62
2022/12/08 11:24:09;;;;;;;1.30;1.20;;;;;;;;;;4573689;28;20129;-62
2022/12/08 11:26:29;;;;;;;1.45;1.35;;;;;;;;;;4574083;28;20158;-62
2022/12/08 11:28:39;;;;;;;1.10;1.10;;;;;;;;;;4573259;28;20571;-62
2022/12/08 11:30:59;;;;;;;1.00;0.90;;;;;;;;;;4573152;28;20044;-62
2022/12/08 11:33:18;;;;;;;0.70;0.70;;;;;;;;;;4573898;28;20041;-62
2022/12/08 11:35:34;;;;;;;0.70;0.70;;;;;;;;;;4573297;28;20032;-62
2022/12/08 11:37:44;;;;;;;0.70;0.70;;;;;;;;;;4556577;28;20033;-62
2022/12/08 11:39:56;;;;;;;0.90;0.90;;;;;;;;;;4573704;28;20040;-62
2022/12/08 11:42:07;;;;;;;0.70;0.70;;;;;;;;;;4572560;28;20032;-62
2022/12/08 11:44:37;;;;;;;1.00;1.00;;;;;;;;;;4573351;28;20032;-62
2022/12/08 11:46:47;;;;;;;1.30;1.20;;;;;;;;;;4573318;28;20044;-62
2022/12/08 11:49:00;;;;;;;1.08;0.98;;;;;;;;;;4554271;28;20931;-63
2022/12/08 11:51:29;;;;;;;1.10;1.00;;;;;;;;;;4552041;28;20761;-63
2022/12/08 11:53:42;;;;;;;1.05;0.98;;;;;;;;;;4573709;28;20060;-62
2022/12/08 11:55:55;;;;;;;1.00;0.90;;;;;;;;;;4573270;28;20028;-63
2022/12/08 11:58:17;;;;;;;1.80;1.40;;;;;;;;;;4554539;28;20087;-63
2022/12/08 12:00:27;;;;;;;1.10;1.00;;;;;;;;;;4572888;28;20016;-62
2022/12/08 12:02:41;;;;;;;1.17;1.08;;;;;;;;;;4572565;28;20508;-62
2022/12/08 12:04:51;;;;;;;0.70;0.70;;;;;;;;;;4573115;28;20095;-62
2022/12/08 12:07:07;;;;;;;1.00;1.00;;;;;;;;;;4572935;28;20043;-62
2022/12/08 12:09:25;;;;;;;0.80;0.77;;;;;;;;;;4573308;28;20095;-62
2022/12/08 12:14:27;;;;;;;0.75;0.73;;;;;;;;;;4573449;28;20579;-64
2022/12/08 12:16:49;;;;;;;0.65;0.60;;;;;;;;;;4573265;28;20036;-63
2022/12/08 12:19:01;;;;;;;0.85;0.70;;;;;;;;;;4572474;28;20566;-63
2022/12/08 12:21:24;;;;;;;0.60;0.60;;;;;;;;;;4571612;28;20113;-63
2022/12/08 12:23:35;;;;;;;0.90;0.90;;;;;;;;;;4573097;28;20141;-62
2022/12/08 12:25:56;;;;;;;1.00;0.85;;;;;;;;;;4572670;28;20110;-62
2022/12/08 12:28:10;;;;;;;0.90;0.90;;;;;;;;;;4572889;28;20103;-63
2022/12/08 12:30:22;;;;;;;2.50;1.85;;;;;;;;;;4572688;28;20936;-63
2022/12/08 12:32:41;;;;;;;2.80;2.25;;;;;;;;;;4572869;28;20055;-62
2022/12/08 12:34:53;;;;;;;2.40;2.20;;;;;;;;;;4573294;28;20523;-63
2022/12/08 12:37:06;;;;;;;2.10;1.90;;;;;;;;;;4573277;28;20678;-63
2022/12/08 12:39:18;;;;;;;1.20;1.10;;;;;;;;;;4554950;28;20059;-63
2022/12/08 12:41:32;;;;;;;1.50;1.40;;;;;;;;;;4554830;28;20040;-63
2022/12/08 12:44:02;;;;;;;1.10;1.00;;;;;;;;;;4575224;28;20058;-62
2022/12/08 12:46:21;;;;;;;1.88;1.77;;;;;;;;;;4575228;28;20040;-63
2022/12/08 12:48:32;;;;;;;1.70;1.60;;;;;;;;;;4574410;28;21070;-63
2022/12/08 12:50:43;;;;;;;1.73;1.63;;;;;;;;;;4575082;28;20039;-62
2022/12/08 12:52:54;;;;;;;1.27;1.17;;;;;;;;;;4574984;28;20039;-63
2022/12/08 12:55:10;;;;;;;1.50;1.40;;;;;;;;;;4575764;28;20036;-63
2022/12/08 12:57:22;;;;;;;1.20;1.10;;;;;;;;;;4575304;28;20649;-63
2022/12/08 12:59:32;;;;;;;1.10;1.00;;;;;;;;;;4576311;28;20043;-63
2022/12/08 13:01:47;;;;;;;1.30;1.17;;;;;;;;;;4575610;28;20679;-64
2022/12/08 13:04:06;;;;;;;0.90;0.90;;;;;;;;;;4576202;28;20586;-62
2022/12/08 13:06:31;;;;;;;1.27;1.13;;;;;;;;;;4575756;28;20032;-63
2022/12/08 13:08:49;;;;;;;0.90;0.90;;;;;;;;;;4547663;28;20044;-62
2022/12/08 13:11:01;;;;;;;1.30;1.20;;;;;;;;;;4575342;28;20557;-63
2022/12/08 13:13:13;;;;;;;1.20;1.10;;;;;;;;;;4575659;28;20043;-63
2022/12/08 13:15:24;;;;;;;1.17;1.08;;;;;;;;;;4574910;28;20507;-62
2022/12/08 13:17:36;;;;;;;0.85;0.85;;;;;;;;;;4575942;28;20538;-63
2022/12/08 13:19:46;;;;;;;1.40;1.30;;;;;;;;;;4575799;28;20122;-63
2022/12/08 13:21:57;;;;;;;1.10;1.10;;;;;;;;;;4576371;28;20127;-62
2022/12/08 13:24:18;;;;;;;1.27;1.17;;;;;;;;;;4575781;28;21080;-63